Terminal Aerodrome Forecast
Issued by NWS Central Illinois

Home | Current Version | Previous Version | Text Only | Print | Product List | Glossary On
Versions: 1 2 3 4 5 6 7 8 9 10 11 12 13 14 15 16 17 18 19 20 21 22 23 24 25 26 27 28 29 30 31 32 33 34
000
FTUS43 KILX 281140
TAFPIA
TAF
KPIA 281140Z 2812/2912 VRB03KT P6SM OVC060
     FM281400 VRB03KT P6SM VCSH OVC025
     FM281900 32008KT P6SM OVC025
     FM282100 32008KT P6SM BKN035
     FM290000 33005KT P6SM SKC=

USA.gov is the U.S. government's official web portal to all federal, state and local government web resources and services.